Chicago Rockford International Airport
KRFD : now visible

Airfield :











YOU CAN JOIN US ON...

 
LOGIN :

Register | Disclaimer

   EN    FR    IT 

 









Legend :    VFR   Marginal VFR   IFR   Intensive IFR   Very Intensive IFR
Visi :
Ceiling :
>= 8 km
>= 3000ft
5 to 8 km
1000 to 3000 ft
1500m to 5 km
500 to 1000 ft
800 to 1500m
200 to 500 ft
< 800m
< 200 ft
Symbols :   Thunderstorms  Fog  Heavy snow  Heavy precipitations  Wind > 20 kt







- Airport Elevation : 742 ft
- IATA code : RFD


KRFD - Chicago Rockford International

CURRENT METAR :
  • 201954Z VRB04KT 10SM FEW032 OVC250 29/21 A3008 RMK AO2 SLP182 T02890211 $

EXPIRED METARs :
  • 201854Z 00000KT 10SM FEW026 FEW070 OVC250 29/22 A3010 RMK AO2 SLP188 T02890217 $
  • 201754Z VRB03KT 10SM FEW070 OVC250 27/21 A3012 RMK AO2 SLP195 T02720211 10283 20183 56007 $

TAF KRFD
Valid from the 20 at 18:00 until the 21 at 18:00 UTC


201738Z 2018/2118 VRB03KT P6SM FEW040 OVC250
FM210100 14005KT P6SM SCT250
FM210700 18006KT P6SM FEW250
FM211300 20012G20KT P6SM BKN035
PROB30 2113/2115 6SM -SHRA BR BKN060
FM211500 20015G25KT P6SM OVC025
PROB30 2115/2118 4SM -TSRA BR OVC015CB
No reported NOTAMs for that airfield.



MET'MAP, your aeronautical weather chart ! - Copyright ORBIFLY December 2007 - Disclaimer

ORBIFLY MET'MAP TEAM :

Programming & Development : Alexandra Zaïnal
Concept & Development : Baudouin d'Aumeries
Co-Development & Prog : Marc-Olivier Méhu
Technical & hardware support : Manuel Goepfert

Contact : metmap@orbifly.com




SOURCES & CREDITS :

   NOAA       Earth
Advisory